createdAt,value
2023-05-13T00:00:18.402Z,6.40
2023-05-13T00:04:34.727Z,5.62
2023-05-13T00:08:51.308Z,5.90
2023-05-13T00:13:08.638Z,6.03
2023-05-13T00:17:25.280Z,5.78
2023-05-13T00:21:41.646Z,5.93
2023-05-13T00:25:57.818Z,6.53
2023-05-13T00:30:14.249Z,6.12
2023-05-13T00:34:30.511Z,5.53
2023-05-13T00:38:46.824Z,6.22
2023-05-13T00:43:03.004Z,5.93
2023-05-13T00:47:19.392Z,5.65
2023-05-13T00:51:36.728Z,5.57
2023-05-13T00:55:53.286Z,5.82
2023-05-13T01:00:10.762Z,5.95
2023-05-13T01:04:57.528Z,5.80
2023-05-13T01:09:35.161Z,5.65
2023-05-13T01:13:58.228Z,5.18
2023-05-13T01:18:24.905Z,5.00
2023-05-13T01:22:41.194Z,5.35
2023-05-13T01:26:57.494Z,5.37
2023-05-13T01:31:15.466Z,5.43
2023-05-13T01:35:32.316Z,5.40
2023-05-13T01:39:48.865Z,5.32
2023-05-13T01:44:05.183Z,5.57
2023-05-13T01:48:21.405Z,5.90
2023-05-13T01:52:37.748Z,5.43
2023-05-13T01:56:54.059Z,5.20
2023-05-13T02:01:10.248Z,5.28
2023-05-13T02:05:26.482Z,5.35
2023-05-13T02:09:42.815Z,5.25
2023-05-13T02:13:59.212Z,5.00
2023-05-13T02:18:15.407Z,4.93
2023-05-13T02:22:31.714Z,5.45
2023-05-13T02:26:47.952Z,4.82
2023-05-13T02:31:04.227Z,5.20
2023-05-13T02:35:20.732Z,4.90
2023-05-13T02:39:37.080Z,5.35
2023-05-13T02:43:53.411Z,4.75
2023-05-13T02:48:11.202Z,5.65
2023-05-13T02:52:27.480Z,4.70
2023-05-13T02:56:43.731Z,5.47
2023-05-13T03:01:00.087Z,5.35
2023-05-13T03:05:16.762Z,5.45
2023-05-13T03:09:35.269Z,5.10
2023-05-13T03:13:51.647Z,5.60
2023-05-13T03:18:07.964Z,5.15
2023-05-13T03:22:24.291Z,5.40
2023-05-13T03:26:40.603Z,4.78
2023-05-13T03:30:56.860Z,5.20
2023-05-13T03:35:13.173Z,4.90
2023-05-13T03:39:29.617Z,5.20
2023-05-13T03:43:46.586Z,4.97
2023-05-13T03:48:02.761Z,5.18
2023-05-13T03:52:19.047Z,5.18
2023-05-13T03:56:35.350Z,5.53
2023-05-13T04:00:51.604Z,5.60
2023-05-13T04:05:09.752Z,5.82
2023-05-13T04:09:26.140Z,5.18
2023-05-13T04:13:44.018Z,5.32
2023-05-13T04:18:00.544Z,5.15
2023-05-13T04:22:16.726Z,5.22
2023-05-13T04:26:33.014Z,4.95
2023-05-13T04:30:49.328Z,5.20
2023-05-13T04:35:07.188Z,4.85
2023-05-13T04:39:23.400Z,4.80
2023-05-13T04:43:39.716Z,4.45
2023-05-13T04:47:58.373Z,4.43
2023-05-13T04:52:14.795Z,4.75
2023-05-13T04:56:31.043Z,5.03
2023-05-13T05:00:47.239Z,4.40
2023-05-13T05:05:03.864Z,5.00
2023-05-13T05:09:20.205Z,4.80
2023-05-13T05:13:36.448Z,5.28
2023-05-13T05:17:52.791Z,6.55
2023-05-13T05:22:09.155Z,7.05
2023-05-13T05:26:25.435Z,8.20
2023-05-13T05:30:41.920Z,8.10
2023-05-13T05:34:58.124Z,7.82
2023-05-13T05:39:14.316Z,7.35
2023-05-13T05:43:31.003Z,7.80
2023-05-13T05:47:47.212Z,7.22
2023-05-13T05:52:03.487Z,7.28
2023-05-13T05:56:20.089Z,8.18
2023-05-13T06:00:36.320Z,8.82
2023-05-13T06:04:52.608Z,8.98
2023-05-13T06:09:08.844Z,9.32
2023-05-13T06:13:25.392Z,9.63
2023-05-13T06:17:41.622Z,8.70
2023-05-13T06:21:57.981Z,8.80
2023-05-13T06:26:14.194Z,7.90
2023-05-13T06:30:30.337Z,8.05
2023-05-13T06:34:47.000Z,9.93
2023-05-13T06:39:03.563Z,9.77
2023-05-13T06:43:19.966Z,8.70
2023-05-13T06:47:36.365Z,7.90
2023-05-13T06:51:52.695Z,7.87
2023-05-13T06:56:09.032Z,7.72
2023-05-13T07:00:25.599Z,7.20
2023-05-13T07:04:41.864Z,8.80
2023-05-13T07:08:58.103Z,7.87
2023-05-13T07:13:14.730Z,7.12
2023-05-13T07:17:31.677Z,9.25
2023-05-13T07:21:47.985Z,7.20
2023-05-13T07:26:04.322Z,7.37
2023-05-13T07:30:20.779Z,7.25
2023-05-13T07:34:37.489Z,6.57
2023-05-13T07:38:54.132Z,6.05
2023-05-13T07:43:10.530Z,6.97
2023-05-13T07:47:29.340Z,9.15
2023-05-13T07:51:45.655Z,7.62
2023-05-13T07:56:01.937Z,5.18
2023-05-13T08:00:18.436Z,4.97
2023-05-13T08:04:34.942Z,4.85
2023-05-13T08:08:51.276Z,7.60
2023-05-13T08:13:07.530Z,5.68
2023-05-13T08:17:23.817Z,4.87
2023-05-13T08:21:40.293Z,5.20
2023-05-13T08:25:56.443Z,4.93
2023-05-13T08:30:13.195Z,5.12
2023-05-13T08:34:29.453Z,4.95
2023-05-13T08:38:45.879Z,4.85
2023-05-13T08:43:04.073Z,4.93
2023-05-13T08:47:38.570Z,5.25
2023-05-13T08:51:54.888Z,4.78
2023-05-13T08:56:12.100Z,5.97
2023-05-13T09:00:28.433Z,5.40
2023-05-13T09:04:46.405Z,5.00
2023-05-13T09:09:03.523Z,4.90
2023-05-13T09:13:19.825Z,4.90
2023-05-13T09:17:40.215Z,4.65
2023-05-13T09:21:57.379Z,5.12
2023-05-13T09:26:30.520Z,4.60
2023-05-13T09:30:54.848Z,4.45
2023-05-13T09:35:16.935Z,3.90
2023-05-13T09:39:38.313Z,4.28
2023-05-13T09:43:54.881Z,3.90
2023-05-13T09:48:11.640Z,4.45
2023-05-13T09:52:29.495Z,4.30
2023-05-13T09:56:45.719Z,4.47
2023-05-13T10:01:03.254Z,4.72
2023-05-13T10:05:19.667Z,4.68
2023-05-13T10:09:37.517Z,4.97
2023-05-13T10:13:59.572Z,4.80
2023-05-13T10:18:17.003Z,5.55
2023-05-13T10:22:35.109Z,4.78
2023-05-13T10:26:52.907Z,7.45
2023-05-13T10:31:09.287Z,5.30
2023-05-13T10:35:28.745Z,5.25
2023-05-13T10:40:16.174Z,5.07
2023-05-13T10:44:33.876Z,4.78
2023-05-13T10:48:55.344Z,4.80
2023-05-13T10:53:19.571Z,4.75
2023-05-13T10:57:38.911Z,4.70
2023-05-13T11:01:55.139Z,8.30
2023-05-13T11:06:19.745Z,6.05
2023-05-13T11:10:36.553Z,4.50
2023-05-13T11:14:56.912Z,4.80
2023-05-13T11:19:24.177Z,4.43
2023-05-13T11:24:02.343Z,4.87
2023-05-13T11:28:38.965Z,4.35
2023-05-13T11:32:56.927Z,4.62
2023-05-13T11:37:13.569Z,5.60
2023-05-13T11:41:35.157Z,5.70
2023-05-13T11:45:52.049Z,5.25
2023-05-13T11:50:23.364Z,4.85
2023-05-13T11:54:53.831Z,6.28
2023-05-13T11:59:16.401Z,6.00
2023-05-13T12:03:32.661Z,5.60
2023-05-13T12:07:49.190Z,5.70
2023-05-13T12:12:06.080Z,6.10
2023-05-13T12:16:22.830Z,5.60
2023-05-13T12:20:39.196Z,5.00
2023-05-13T12:24:55.963Z,5.05
2023-05-13T12:29:12.411Z,5.22
2023-05-13T12:33:30.171Z,4.55
2023-05-13T12:37:58.491Z,4.87
2023-05-13T12:42:16.228Z,4.65
2023-05-13T12:46:32.921Z,5.12
2023-05-13T12:50:49.169Z,5.05
2023-05-13T12:55:05.840Z,5.05
2023-05-13T12:59:22.131Z,4.47
2023-05-13T13:03:38.423Z,4.28
2023-05-13T13:07:54.857Z,4.53
2023-05-13T13:12:11.079Z,4.45
2023-05-13T13:16:27.719Z,3.47
2023-05-13T13:20:43.942Z,5.05
2023-05-13T13:25:00.167Z,4.40
2023-05-13T13:29:16.400Z,4.10
2023-05-13T13:33:32.588Z,4.40
2023-05-13T13:37:48.807Z,4.37
2023-05-13T13:42:05.294Z,4.07
2023-05-13T13:46:21.585Z,3.87
2023-05-13T13:50:39.000Z,3.62
2023-05-13T13:54:55.853Z,4.05
2023-05-13T13:59:12.106Z,3.33
2023-05-13T14:03:28.701Z,3.87
2023-05-13T14:07:45.084Z,3.62
2023-05-13T14:12:01.442Z,3.70
2023-05-13T14:16:17.670Z,3.95
2023-05-13T14:20:35.879Z,3.95
2023-05-13T14:24:54.829Z,4.20
2023-05-13T14:29:11.061Z,3.72
2023-05-13T14:33:27.279Z,3.87
2023-05-13T14:37:43.839Z,3.30
2023-05-13T14:42:00.800Z,3.40
2023-05-13T14:46:17.430Z,3.85
2023-05-13T14:50:33.879Z,3.30
2023-05-13T14:54:50.185Z,3.65
2023-05-13T14:59:06.410Z,3.67
2023-05-13T15:03:22.615Z,3.70
2023-05-13T15:07:38.917Z,3.67
2023-05-13T15:11:55.172Z,3.45
2023-05-13T15:16:11.963Z,3.30
2023-05-13T15:20:28.832Z,3.33
2023-05-13T15:24:45.196Z,3.65
2023-05-13T15:29:01.594Z,3.58
2023-05-13T15:33:17.958Z,3.53
2023-05-13T15:37:34.179Z,3.30
2023-05-13T15:41:50.477Z,3.47
2023-05-13T15:46:06.821Z,3.70
2023-05-13T15:50:23.596Z,3.55
2023-05-13T15:54:40.102Z,3.95
2023-05-13T15:58:56.368Z,3.60
2023-05-13T16:03:12.708Z,4.20
2023-05-13T16:07:28.981Z,3.58
2023-05-13T16:11:45.289Z,3.17
2023-05-13T16:16:01.672Z,3.17
2023-05-13T16:20:17.922Z,3.20
2023-05-13T16:24:34.177Z,3.15
2023-05-13T16:28:50.548Z,3.50
2023-05-13T16:33:08.194Z,3.05
2023-05-13T16:37:24.523Z,3.70
2023-05-13T16:41:40.837Z,3.70
2023-05-13T16:45:57.145Z,3.75
2023-05-13T16:50:13.346Z,3.47
2023-05-13T16:54:29.788Z,3.58
2023-05-13T16:58:46.285Z,3.15
2023-05-13T17:03:02.608Z,2.97
2023-05-13T17:07:19.438Z,3.40
2023-05-13T17:11:37.355Z,3.53
2023-05-13T17:15:53.688Z,3.33
2023-05-13T17:20:10.570Z,3.33
2023-05-13T17:24:32.564Z,3.78
2023-05-13T17:28:49.923Z,4.12
2023-05-13T17:33:06.290Z,4.18
2023-05-13T17:37:22.558Z,3.83
2023-05-13T17:41:38.920Z,3.80
2023-05-13T17:45:55.116Z,3.72
2023-05-13T17:50:11.706Z,3.90
2023-05-13T17:54:27.886Z,4.85
2023-05-13T17:58:44.076Z,4.35
2023-05-13T18:03:00.362Z,3.83
2023-05-13T18:07:16.703Z,4.37
2023-05-13T18:11:32.906Z,4.28
2023-05-13T18:15:49.248Z,4.05
2023-05-13T18:20:06.368Z,4.25
2023-05-13T18:24:22.543Z,4.72
2023-05-13T18:28:39.861Z,4.30
2023-05-13T18:32:56.306Z,4.10
2023-05-13T18:37:12.461Z,4.03
2023-05-13T18:41:28.707Z,3.83
2023-05-13T18:45:45.006Z,4.50
2023-05-13T18:50:01.305Z,4.22
2023-05-13T18:54:17.538Z,4.37
2023-05-13T18:58:34.574Z,5.37
2023-05-13T19:02:50.965Z,5.43
2023-05-13T19:07:07.387Z,4.78
2023-05-13T19:11:23.690Z,4.82
2023-05-13T19:15:40.404Z,3.97
2023-05-13T19:19:57.682Z,4.55
2023-05-13T19:24:13.942Z,4.22
2023-05-13T19:28:30.253Z,4.62
2023-05-13T19:32:46.536Z,5.12
2023-05-13T19:37:02.953Z,4.68
2023-05-13T19:41:21.247Z,6.53
2023-05-13T19:45:37.535Z,4.45
2023-05-13T19:50:01.401Z,4.10
2023-05-13T19:54:18.078Z,3.95
2023-05-13T19:58:34.346Z,4.15
2023-05-13T20:02:50.709Z,4.20
2023-05-13T20:07:09.169Z,4.12
2023-05-13T20:11:25.662Z,4.18
2023-05-13T20:15:42.548Z,4.82
2023-05-13T20:20:02.542Z,4.22
2023-05-13T20:24:19.347Z,4.57
2023-05-13T20:28:37.533Z,4.35
2023-05-13T20:32:54.293Z,5.10
2023-05-13T20:37:10.539Z,4.57
2023-05-13T20:41:26.852Z,4.80
2023-05-13T20:45:43.515Z,5.20
2023-05-13T20:49:59.781Z,4.55
2023-05-13T20:54:18.794Z,4.28
2023-05-13T20:58:36.788Z,4.25
2023-05-13T21:02:54.079Z,4.80
2023-05-13T21:07:10.992Z,4.50
2023-05-13T21:11:27.350Z,4.45
2023-05-13T21:15:43.730Z,5.55
2023-05-13T21:19:59.978Z,4.70
2023-05-13T21:24:18.832Z,5.60
2023-05-13T21:28:35.375Z,5.75
2023-05-13T21:32:51.641Z,4.75
2023-05-13T21:37:07.930Z,4.87
2023-05-13T21:41:24.181Z,6.62
2023-05-13T21:45:40.426Z,7.43
2023-05-13T21:49:56.654Z,6.95
2023-05-13T21:54:12.836Z,6.40
2023-05-13T21:58:29.107Z,6.22
2023-05-13T22:02:50.171Z,4.95
2023-05-13T22:07:06.687Z,4.35
2023-05-13T22:11:23.490Z,4.80
2023-05-13T22:15:39.686Z,5.03
2023-05-13T22:19:56.004Z,5.40
2023-05-13T22:24:12.146Z,5.53
2023-05-13T22:28:28.340Z,5.05
2023-05-13T22:32:44.552Z,5.40
2023-05-13T22:37:01.215Z,5.10
2023-05-13T22:41:20.921Z,5.25
2023-05-13T22:45:38.055Z,5.10
2023-05-13T22:49:54.450Z,5.03
2023-05-13T22:54:10.758Z,5.25
2023-05-13T22:58:26.929Z,4.72
2023-05-13T23:02:43.293Z,5.40
2023-05-13T23:06:59.595Z,4.80
2023-05-13T23:11:15.821Z,5.07
2023-05-13T23:15:32.669Z,5.07
2023-05-13T23:19:49.022Z,5.65
2023-05-13T23:24:05.449Z,4.95
2023-05-13T23:28:21.694Z,5.35
2023-05-13T23:32:37.945Z,4.22
2023-05-13T23:36:54.394Z,4.70
2023-05-13T23:41:10.638Z,5.03
2023-05-13T23:45:27.528Z,4.43
2023-05-13T23:49:44.392Z,4.45
2023-05-13T23:54:01.151Z,4.43
2023-05-13T23:58:17.947Z,4.80
